createdAt,value
2019-05-02T00:00:32.619Z,8.70
2019-05-02T00:03:04.402Z,8.70
2019-05-02T00:05:33.643Z,8.70
2019-05-02T00:08:03.286Z,8.70
2019-05-02T00:10:34.655Z,8.70
2019-05-02T00:13:04.139Z,8.70
2019-05-02T00:15:38.099Z,8.80
2019-05-02T00:18:04.959Z,8.80
2019-05-02T00:20:34.457Z,8.80
2019-05-02T00:23:03.899Z,8.90
2019-05-02T00:25:33.332Z,8.90
2019-05-02T00:28:02.795Z,8.90
2019-05-02T00:30:34.712Z,8.90
2019-05-02T00:33:03.512Z,9.00
2019-05-02T00:35:32.964Z,8.90
2019-05-02T00:38:02.684Z,8.90
2019-05-02T00:40:33.359Z,8.90
2019-05-02T00:43:03.147Z,8.90
2019-05-02T00:45:32.896Z,8.90
2019-05-02T00:48:19.330Z,8.80
2019-05-02T00:50:52.541Z,8.80
2019-05-02T00:53:22.179Z,8.80
2019-05-02T00:55:51.648Z,8.80
2019-05-02T00:58:21.087Z,8.70
2019-05-02T01:01:03.930Z,8.70
2019-05-02T01:03:35.030Z,8.60
2019-05-02T01:06:04.597Z,8.70
2019-05-02T01:08:35.696Z,8.60
2019-05-02T01:11:05.119Z,8.60
2019-05-02T01:13:34.489Z,8.60
2019-05-02T01:16:03.989Z,8.70
2019-05-02T01:18:37.267Z,8.60
2019-05-02T01:21:04.567Z,8.50
2019-05-02T01:23:34.003Z,8.50
2019-05-02T01:26:03.359Z,8.50
2019-05-02T01:28:54.247Z,8.50
2019-05-02T01:31:30.012Z,8.50
2019-05-02T01:34:04.127Z,8.40
2019-05-02T01:36:36.757Z,8.30
2019-05-02T01:39:08.793Z,8.20
2019-05-02T01:41:38.422Z,8.10
2019-05-02T01:44:07.764Z,8.10
2019-05-02T01:46:37.128Z,8.00
2019-05-02T01:49:07.662Z,7.90
2019-05-02T01:51:37.099Z,7.90
2019-05-02T01:54:10.075Z,7.80
2019-05-02T01:56:39.415Z,7.70
2019-05-02T01:59:08.772Z,7.70
2019-05-02T02:01:38.134Z,7.70
2019-05-02T02:04:07.496Z,7.70
2019-05-02T02:06:56.183Z,7.60
2019-05-02T02:09:25.575Z,7.50
2019-05-02T02:11:55.020Z,7.60
2019-05-02T02:14:24.388Z,7.60
2019-05-02T02:16:53.764Z,7.60
2019-05-02T02:19:24.761Z,7.60
2019-05-02T02:22:02.812Z,7.60
2019-05-02T02:24:40.348Z,7.60
2019-05-02T02:27:09.811Z,7.60
2019-05-02T02:29:43.878Z,7.60
2019-05-02T02:32:10.326Z,7.50
2019-05-02T02:34:39.803Z,7.50
2019-05-02T02:37:12.504Z,7.50
2019-05-02T02:39:40.275Z,7.40
2019-05-02T02:42:09.726Z,7.30
2019-05-02T02:44:49.265Z,7.20
2019-05-02T02:47:20.980Z,7.10
2019-05-02T02:49:55.709Z,7.00
2019-05-02T02:52:20.820Z,7.00
2019-05-02T02:54:50.262Z,7.00
2019-05-02T02:57:26.223Z,7.00
2019-05-02T02:59:51.947Z,7.00
2019-05-02T03:02:21.324Z,7.00
2019-05-02T03:04:50.752Z,7.00
2019-05-02T03:07:25.808Z,7.00
2019-05-02T03:09:51.199Z,7.00
2019-05-02T03:12:23.362Z,6.90
2019-05-02T03:14:54.624Z,7.00
2019-05-02T03:17:25.923Z,7.00
2019-05-02T03:20:00.955Z,7.00
2019-05-02T03:22:26.254Z,7.10
2019-05-02T03:24:56.154Z,7.00
2019-05-02T03:27:29.934Z,7.00
2019-05-02T03:29:57.389Z,7.00
2019-05-02T03:32:34.137Z,7.00
2019-05-02T03:34:58.333Z,7.00
2019-05-02T03:37:28.016Z,7.00
2019-05-02T03:40:00.294Z,7.00
2019-05-02T03:42:28.438Z,7.00
2019-05-02T03:45:03.847Z,7.00
2019-05-02T03:47:29.345Z,7.00
2019-05-02T03:49:59.372Z,7.00
2019-05-02T03:52:28.848Z,7.00
2019-05-02T03:58:33.016Z,7.10
2019-05-02T04:01:03.848Z,7.10
2019-05-02T04:03:40.761Z,7.00
2019-05-02T04:06:05.320Z,7.00
2019-05-02T04:08:36.047Z,7.00
2019-05-02T04:11:17.559Z,7.00
2019-05-02T04:13:47.957Z,7.00
2019-05-02T04:16:18.080Z,7.00
2019-05-02T04:18:54.997Z,7.00
2019-05-02T04:21:24.226Z,7.00
2019-05-02T04:23:51.207Z,6.90
2019-05-02T04:29:55.380Z,7.00
2019-05-02T04:32:24.830Z,7.00
2019-05-02T04:34:55.154Z,7.00
2019-05-02T04:37:25.340Z,7.00
2019-05-02T04:43:29.966Z,7.10
2019-05-02T04:46:00.285Z,7.20
2019-05-02T04:51:50.675Z,7.20
2019-05-02T04:54:22.059Z,7.30
2019-05-02T05:01:10.096Z,7.30
2019-05-02T05:03:39.691Z,7.40
2019-05-02T05:09:20.831Z,7.40
2019-05-02T05:11:53.792Z,7.50
2019-05-02T05:14:21.260Z,7.60
2019-05-02T05:16:55.341Z,7.70
2019-05-02T05:19:22.975Z,7.80
2019-05-02T05:21:58.879Z,7.90
2019-05-02T05:24:42.445Z,7.90
2019-05-02T05:27:13.414Z,8.00
2019-05-02T05:29:45.931Z,8.10
2019-05-02T05:32:15.229Z,8.10
2019-05-02T05:34:44.663Z,8.20
2019-05-02T05:40:37.610Z,8.30
2019-05-02T05:43:14.160Z,8.40
2019-05-02T05:45:51.189Z,8.50
2019-05-02T05:48:09.224Z,8.60
2019-05-02T05:50:41.386Z,8.60
2019-05-02T05:53:12.414Z,8.70
2019-05-02T05:55:40.809Z,8.70
2019-05-02T05:58:15.173Z,8.80
2019-05-02T06:00:45.863Z,8.90
2019-05-02T06:03:14.267Z,9.00
2019-05-02T06:05:43.708Z,9.10
2019-05-02T06:08:13.874Z,9.30
2019-05-02T06:10:45.169Z,9.40
2019-05-02T06:13:14.695Z,9.50
2019-05-02T06:15:45.881Z,9.60
2019-05-02T06:18:15.200Z,9.60
2019-05-02T06:20:44.679Z,9.70
2019-05-02T06:23:16.032Z,9.70
2019-05-02T06:25:45.103Z,9.80
2019-05-02T06:28:14.472Z,9.90
2019-05-02T06:30:44.063Z,9.90
2019-05-02T06:33:13.415Z,10.00
2019-05-02T06:35:42.831Z,10.20
2019-05-02T06:38:15.068Z,10.30
2019-05-02T06:40:46.605Z,10.30
2019-05-02T06:43:16.171Z,10.30
2019-05-02T06:45:45.623Z,10.30
2019-05-02T06:48:17.745Z,10.30
2019-05-02T06:50:46.164Z,10.40
2019-05-02T06:53:15.538Z,10.50
2019-05-02T06:55:45.135Z,10.50
2019-05-02T06:58:14.504Z,10.50
2019-05-02T07:00:56.543Z,10.60
2019-05-02T07:03:16.097Z,10.60
2019-05-02T07:05:45.519Z,10.60
2019-05-02T07:08:16.366Z,10.70
2019-05-02T07:10:45.790Z,10.70
2019-05-02T07:13:15.574Z,10.70
2019-05-02T07:15:55.199Z,10.80
2019-05-02T07:18:26.287Z,10.90
2019-05-02T07:20:55.728Z,11.00
2019-05-02T07:23:25.268Z,11.10
2019-05-02T07:25:54.639Z,11.10
2019-05-02T07:28:24.333Z,11.20
2019-05-02T07:30:54.783Z,11.30
2019-05-02T07:33:24.499Z,11.40
2019-05-02T07:36:00.159Z,11.40
2019-05-02T07:38:29.048Z,11.40
2019-05-02T07:40:59.999Z,11.40
2019-05-02T07:43:29.377Z,11.50
2019-05-02T07:45:58.810Z,11.50
2019-05-02T07:48:28.264Z,11.40
2019-05-02T07:50:57.623Z,11.40
2019-05-02T07:53:27.075Z,11.40
2019-05-02T07:55:58.125Z,11.30
2019-05-02T07:58:27.506Z,11.30
2019-05-02T08:00:56.863Z,11.20
2019-05-02T08:03:29.358Z,11.20
2019-05-02T08:05:58.581Z,11.20
2019-05-02T08:08:29.922Z,11.20
2019-05-02T08:11:01.719Z,11.30
2019-05-02T08:13:31.499Z,11.30
2019-05-02T08:16:02.808Z,11.20
2019-05-02T08:18:32.243Z,11.20
2019-05-02T08:21:01.606Z,11.30
2019-05-02T08:23:32.031Z,11.20
2019-05-02T08:26:01.415Z,11.10
2019-05-02T08:28:41.399Z,11.10
2019-05-02T08:31:13.653Z,11.10
2019-05-02T08:33:41.979Z,11.20
2019-05-02T08:36:11.451Z,11.20
2019-05-02T08:38:40.880Z,11.30
2019-05-02T08:41:10.315Z,11.40
2019-05-02T08:43:40.071Z,11.50
2019-05-02T08:46:14.530Z,11.60
2019-05-02T08:48:43.794Z,11.70
2019-05-02T08:51:13.191Z,11.60
2019-05-02T08:53:42.558Z,11.70
2019-05-02T08:56:16.507Z,11.70
2019-05-02T08:58:44.858Z,11.60
2019-05-02T09:01:15.480Z,11.60
2019-05-02T09:04:00.520Z,11.70
2019-05-02T09:06:17.147Z,11.70
2019-05-02T09:08:51.318Z,11.70
2019-05-02T09:11:18.450Z,11.70
2019-05-02T09:13:48.206Z,11.80
2019-05-02T09:16:23.344Z,11.80
2019-05-02T09:18:51.919Z,11.90
2019-05-02T09:21:21.884Z,11.90
2019-05-02T09:23:51.997Z,11.90
2019-05-02T09:26:35.086Z,11.90
2019-05-02T09:28:56.268Z,11.90
2019-05-02T09:31:24.733Z,12.00
2019-05-02T09:33:55.664Z,12.00
2019-05-02T09:36:25.347Z,12.10
2019-05-02T09:38:57.626Z,12.30
2019-05-02T09:41:26.799Z,12.40
2019-05-02T09:43:56.935Z,12.60
2019-05-02T09:46:26.304Z,12.60
2019-05-02T09:48:57.185Z,12.70
2019-05-02T09:51:26.905Z,12.70
2019-05-02T09:53:57.144Z,12.70
2019-05-02T09:56:27.397Z,12.70
2019-05-02T09:59:06.167Z,12.70
2019-05-02T10:04:49.573Z,13.00
2019-05-02T10:07:19.075Z,13.30
2019-05-02T10:09:48.524Z,13.40
2019-05-02T10:12:17.959Z,13.50
2019-05-02T10:14:47.394Z,13.60
2019-05-02T10:17:18.488Z,13.70
2019-05-02T10:19:49.151Z,13.80
2019-05-02T10:22:18.887Z,13.90
2019-05-02T10:28:23.139Z,13.50
2019-05-02T10:30:56.412Z,13.20
2019-05-02T10:33:27.961Z,13.10
2019-05-02T10:35:54.784Z,12.90
2019-05-02T10:41:48.135Z,12.50
2019-05-02T10:44:17.580Z,12.00
2019-05-02T10:46:54.144Z,11.90
2019-05-02T10:52:47.687Z,11.80
2019-05-02T10:55:21.740Z,11.80
2019-05-02T10:57:49.940Z,11.70
2019-05-02T11:00:23.445Z,11.80
2019-05-02T11:03:12.580Z,11.90
2019-05-02T11:05:43.579Z,12.00
2019-05-02T11:08:12.960Z,12.20
2019-05-02T11:10:42.856Z,12.30
2019-05-02T11:13:13.941Z,12.50
2019-05-02T11:15:49.387Z,12.70
2019-05-02T11:18:22.195Z,12.70
2019-05-02T11:20:52.505Z,12.90
2019-05-02T11:23:22.220Z,13.00
2019-05-02T11:25:52.673Z,12.90
2019-05-02T11:28:23.447Z,12.90
2019-05-02T11:30:56.972Z,13.00
2019-05-02T11:33:23.959Z,12.80
2019-05-02T11:35:53.620Z,12.80
2019-05-02T11:38:39.812Z,12.50
2019-05-02T11:41:06.729Z,12.40
2019-05-02T11:43:41.397Z,12.10
2019-05-02T11:46:08.112Z,12.00
2019-05-02T11:48:37.471Z,11.90
2019-05-02T11:51:07.429Z,11.90
2019-05-02T11:53:37.905Z,12.00
2019-05-02T11:56:08.478Z,12.00
2019-05-02T11:58:42.457Z,12.00
2019-05-02T12:01:09.459Z,12.10
2019-05-02T12:03:44.117Z,12.10
2019-05-02T12:06:19.120Z,12.20
2019-05-02T12:08:49.224Z,12.20
2019-05-02T12:11:17.712Z,12.30
2019-05-02T12:13:47.372Z,12.30
2019-05-02T12:16:17.973Z,12.30
2019-05-02T12:18:47.348Z,12.30
2019-05-02T12:21:16.865Z,12.40
2019-05-02T12:23:46.231Z,12.50
2019-05-02T12:26:15.671Z,12.50
2019-05-02T12:28:45.035Z,12.40
2019-05-02T12:31:29.209Z,12.40
2019-05-02T12:33:59.327Z,12.50
2019-05-02T12:36:28.840Z,12.60
2019-05-02T12:38:58.260Z,12.60
2019-05-02T12:41:27.619Z,12.70
2019-05-02T12:43:56.988Z,12.80
2019-05-02T12:46:28.429Z,12.90
2019-05-02T12:48:57.424Z,12.90
2019-05-02T12:51:26.792Z,12.80
2019-05-02T12:53:56.155Z,12.80
2019-05-02T12:56:25.529Z,12.90
2019-05-02T12:58:54.900Z,12.90
2019-05-02T13:01:24.331Z,12.90
2019-05-02T13:03:58.020Z,12.90
2019-05-02T13:06:27.379Z,12.90
2019-05-02T13:08:56.739Z,12.90
2019-05-02T13:11:45.985Z,12.90
2019-05-02T13:14:19.730Z,12.90
2019-05-02T13:16:48.023Z,12.70
2019-05-02T13:19:17.776Z,12.70
2019-05-02T13:21:50.129Z,12.60
2019-05-02T13:24:29.115Z,12.70
2019-05-02T13:26:59.418Z,12.60
2019-05-02T13:29:26.993Z,12.60
2019-05-02T13:31:58.052Z,12.50
2019-05-02T13:34:32.075Z,12.40
2019-05-02T13:37:02.958Z,12.40
2019-05-02T13:39:45.893Z,12.30
2019-05-02T13:42:16.629Z,12.30
2019-05-02T13:47:58.211Z,12.50
2019-05-02T13:50:27.680Z,12.70
2019-05-02T13:52:57.992Z,12.80
2019-05-02T13:55:31.740Z,12.80
2019-05-02T13:58:02.509Z,12.90
2019-05-02T14:00:33.621Z,12.80
2019-05-02T14:03:03.108Z,12.80
2019-05-02T14:05:32.488Z,12.80
2019-05-02T14:08:18.450Z,13.10
2019-05-02T14:10:56.924Z,13.40
2019-05-02T14:13:27.447Z,13.50
2019-05-02T14:15:56.818Z,13.60
2019-05-02T14:18:28.926Z,13.40
2019-05-02T14:20:57.315Z,13.40
2019-05-02T14:23:27.271Z,13.20
2019-05-02T14:29:21.720Z,13.30
2019-05-02T14:31:51.938Z,13.30
2019-05-02T14:34:39.409Z,13.30
2019-05-02T14:41:03.067Z,13.40
2019-05-02T14:43:53.201Z,13.30
2019-05-02T14:46:28.891Z,13.40
2019-05-02T14:48:55.851Z,13.60
2019-05-02T14:51:27.622Z,13.80
2019-05-02T14:53:57.459Z,14.00
2019-05-02T14:56:32.862Z,14.20
2019-05-02T14:59:02.840Z,14.20
2019-05-02T15:01:32.299Z,14.30
2019-05-02T15:04:06.388Z,14.30
2019-05-02T15:10:08.684Z,14.30
2019-05-02T15:16:02.499Z,14.50
2019-05-02T15:18:32.182Z,14.50
2019-05-02T15:21:03.857Z,14.50
2019-05-02T15:23:32.696Z,14.50
2019-05-02T15:26:02.618Z,14.60
2019-05-02T15:28:37.375Z,14.90
2019-05-02T15:31:05.055Z,15.40
2019-05-02T15:33:36.172Z,16.00
2019-05-02T15:36:07.685Z,16.50
2019-05-02T15:38:42.107Z,16.80
2019-05-02T15:41:12.643Z,16.40
2019-05-02T15:43:44.109Z,15.90
2019-05-02T15:46:10.415Z,15.60
2019-05-02T15:52:28.012Z,14.90
2019-05-02T15:55:00.508Z,14.70
2019-05-02T15:57:38.090Z,14.90
2019-05-02T16:00:01.637Z,14.80
2019-05-02T16:02:33.087Z,15.10
2019-05-02T16:05:05.410Z,15.40
2019-05-02T16:07:38.054Z,15.80
2019-05-02T16:10:06.730Z,16.30
2019-05-02T16:12:37.723Z,16.60
2019-05-02T16:15:13.252Z,17.10
2019-05-02T16:17:38.339Z,17.20
2019-05-02T16:23:35.231Z,17.70
2019-05-02T16:29:36.677Z,16.30
2019-05-02T16:32:07.749Z,16.70
2019-05-02T16:34:54.182Z,16.40
2019-05-02T16:37:22.565Z,16.40
2019-05-02T16:39:52.187Z,17.40
2019-05-02T16:42:22.742Z,18.10
2019-05-02T16:44:54.717Z,18.40
2019-05-02T16:47:23.455Z,18.10
2019-05-02T16:49:56.294Z,18.20
2019-05-02T16:52:24.007Z,17.70
2019-05-02T16:54:53.459Z,16.80
2019-05-02T16:57:23.834Z,16.60
2019-05-02T17:00:01.005Z,16.60
2019-05-02T17:02:24.427Z,16.60
2019-05-02T17:04:54.745Z,16.60
2019-05-02T17:07:25.911Z,17.00
2019-05-02T17:10:14.676Z,17.00
2019-05-02T17:12:40.111Z,17.50
2019-05-02T17:15:31.270Z,18.20
2019-05-02T17:18:05.103Z,18.30
2019-05-02T17:20:31.931Z,18.70
2019-05-02T17:23:05.164Z,19.10
2019-05-02T17:25:32.603Z,19.20
2019-05-02T17:28:08.489Z,19.40
2019-05-02T17:34:08.651Z,20.10
2019-05-02T17:36:38.170Z,20.60
2019-05-02T17:39:08.424Z,20.40
2019-05-02T17:41:42.277Z,19.80
2019-05-02T17:47:21.316Z,18.80
2019-05-02T17:49:52.932Z,18.30
2019-05-02T17:55:56.763Z,17.10
2019-05-02T17:58:26.151Z,16.30
2019-05-02T18:00:57.419Z,16.10
2019-05-02T18:03:31.120Z,16.00
2019-05-02T18:05:59.272Z,15.90
2019-05-02T18:08:28.787Z,15.60
2019-05-02T18:11:00.193Z,15.30
2019-05-02T18:13:33.699Z,15.10
2019-05-02T18:16:00.248Z,14.90
2019-05-02T18:18:31.799Z,14.60
2019-05-02T18:24:23.808Z,14.30
2019-05-02T18:26:53.243Z,14.10
2019-05-02T18:29:22.687Z,14.10
2019-05-02T18:35:27.526Z,14.00
2019-05-02T18:37:57.004Z,13.70
2019-05-02T18:40:29.394Z,13.60
2019-05-02T18:46:10.412Z,13.40
2019-05-02T18:48:42.167Z,13.30
2019-05-02T18:51:11.075Z,13.10
2019-05-02T18:53:42.255Z,13.00
2019-05-02T18:56:12.431Z,12.90
2019-05-02T18:58:45.132Z,12.80
2019-05-02T19:01:16.151Z,12.70
2019-05-02T19:03:46.981Z,12.60
2019-05-02T19:06:15.440Z,12.60
2019-05-02T19:08:49.830Z,12.50
2019-05-02T19:11:18.362Z,12.40
2019-05-02T19:17:12.211Z,12.30
2019-05-02T19:19:41.947Z,12.20
2019-05-02T19:22:16.740Z,12.20
2019-05-02T19:24:43.584Z,12.10
2019-05-02T19:27:14.579Z,12.10
2019-05-02T19:29:48.114Z,12.10
2019-05-02T19:35:45.249Z,11.90
2019-05-02T19:38:11.698Z,11.80
2019-05-02T19:43:53.364Z,11.80
2019-05-02T19:46:24.566Z,11.90
2019-05-02T19:48:53.980Z,11.90
2019-05-02T19:51:23.352Z,11.90
2019-05-02T19:53:59.542Z,11.80
2019-05-02T19:56:24.286Z,11.70
2019-05-02T19:58:53.835Z,11.70
2019-05-02T20:04:57.606Z,11.50
2019-05-02T20:10:56.691Z,11.30
2019-05-02T20:13:28.363Z,11.20
2019-05-02T20:15:57.049Z,11.10
2019-05-02T20:18:28.659Z,11.10
2019-05-02T20:21:12.128Z,11.10
2019-05-02T20:23:43.016Z,11.00
2019-05-02T20:26:15.438Z,11.00
2019-05-02T20:28:42.582Z,10.90
2019-05-02T20:31:12.349Z,10.90
2019-05-02T20:33:43.062Z,10.70
2019-05-02T20:36:12.893Z,10.70
2019-05-02T20:38:42.348Z,10.70
2019-05-02T20:41:12.749Z,10.70
2019-05-02T20:43:44.776Z,10.60
2019-05-02T20:46:13.607Z,10.50
2019-05-02T20:48:43.074Z,10.50
2019-05-02T20:51:12.583Z,10.40
2019-05-02T20:53:42.223Z,10.40
2019-05-02T20:56:12.413Z,10.30
2019-05-02T20:58:42.103Z,10.30
2019-05-02T21:01:12.721Z,10.30
2019-05-02T21:03:42.846Z,10.20
2019-05-02T21:06:19.726Z,10.20
2019-05-02T21:08:57.137Z,10.20
2019-05-02T21:11:27.246Z,10.20
2019-05-02T21:13:56.799Z,10.10
2019-05-02T21:16:26.325Z,10.00
2019-05-02T21:18:55.793Z,9.90
2019-05-02T21:21:26.200Z,9.80
2019-05-02T21:23:55.654Z,9.70
2019-05-02T21:26:26.534Z,9.70
2019-05-02T21:28:56.065Z,9.70
2019-05-02T21:31:25.545Z,9.70
2019-05-02T21:33:55.026Z,9.70
2019-05-02T21:36:24.481Z,9.60
2019-05-02T21:38:53.934Z,9.60
2019-05-02T21:41:23.542Z,9.50
2019-05-02T21:47:28.237Z,9.50
2019-05-02T21:49:59.336Z,9.50
2019-05-02T21:52:36.146Z,9.40
2019-05-02T21:55:15.792Z,9.40
2019-05-02T21:57:45.261Z,9.40
2019-05-02T22:00:19.430Z,9.40
2019-05-02T22:02:52.234Z,9.30
2019-05-02T22:05:22.222Z,9.30
2019-05-02T22:07:52.319Z,9.20
2019-05-02T22:10:23.005Z,9.10
2019-05-02T22:12:52.463Z,9.20
2019-05-02T22:15:22.007Z,9.20
2019-05-02T22:17:52.273Z,9.20
2019-05-02T22:20:22.943Z,9.20
2019-05-02T22:26:43.387Z,9.20
2019-05-02T22:29:12.340Z,9.30
2019-05-02T22:31:43.045Z,9.30
2019-05-02T22:34:13.036Z,9.30
2019-05-02T22:36:44.042Z,9.30
2019-05-02T22:39:32.071Z,9.30
2019-05-02T22:42:04.346Z,9.30
2019-05-02T22:44:32.706Z,9.40
2019-05-02T22:50:37.638Z,9.30
2019-05-02T22:53:07.109Z,9.30
2019-05-02T22:55:36.641Z,9.30
2019-05-02T22:58:06.110Z,9.20
2019-05-02T23:00:35.573Z,9.20
2019-05-02T23:03:05.161Z,9.30
2019-05-02T23:05:34.625Z,9.30
2019-05-02T23:08:04.088Z,9.30
2019-05-02T23:10:33.555Z,9.40
2019-05-02T23:13:03.090Z,9.40
2019-05-02T23:15:32.538Z,9.40
2019-05-02T23:18:01.994Z,9.40
2019-05-02T23:20:32.883Z,9.30
2019-05-02T23:23:02.633Z,9.30
2019-05-02T23:25:48.726Z,9.30
2019-05-02T23:28:19.808Z,9.40
2019-05-02T23:30:51.886Z,9.40
2019-05-02T23:33:23.382Z,9.40
2019-05-02T23:35:52.531Z,9.40
2019-05-02T23:38:21.993Z,9.40
2019-05-02T23:40:52.642Z,9.40
2019-05-02T23:43:22.244Z,9.40
2019-05-02T23:45:51.718Z,9.30
2019-05-02T23:48:22.102Z,9.40
2019-05-02T23:50:52.151Z,9.30
2019-05-02T23:53:22.107Z,9.30
2019-05-02T23:55:51.641Z,9.30
2019-05-02T23:58:22.613Z,9.30
